Time;durP1;ratioP1;P1;durP2;ratioP2;P2;SDS_P1;SDS_P2;PMS_P1;PMS_P2;Temp;Humidity;BMP_temperature;BMP_pressure;BME280_temperature;BME280_humidity;BME280_pressure;Samples;Min_cycle;Max_cycle;Signal;HPM_P1;HPM_P2
2021/10/01 00:00:42;;;;;;;6.05;1.20;;;13.20;99.90;;;;;;5067310;28;20465;-76
2021/10/01 00:03:32;;;;;;;5.10;1.30;;;13.20;99.90;;;;;;5064530;28;20035;-79
2021/10/01 00:05:57;;;;;;;5.13;1.55;;;13.10;99.90;;;;;;5063874;28;20450;-74
2021/10/01 00:08:23;;;;;;;8.13;1.50;;;13.10;99.90;;;;;;5063959;28;20096;-75
2021/10/01 00:10:49;;;;;;;3.08;1.20;;;13.10;99.90;;;;;;5068545;28;20061;-74
2021/10/01 00:13:14;;;;;;;4.82;1.10;;;13.10;99.90;;;;;;5067343;28;20025;-76
2021/10/01 00:15:43;;;;;;;5.45;1.10;;;13.00;99.90;;;;;;5074406;28;20033;-78
2021/10/01 00:18:09;;;;;;;5.90;1.63;;;13.00;99.90;;;;;;5070217;28;20066;-78
2021/10/01 00:20:35;;;;;;;4.88;1.20;;;13.00;99.90;;;;;;5073577;28;20392;-74
2021/10/01 00:23:01;;;;;;;4.22;1.23;;;13.00;99.90;;;;;;5070917;28;20019;-73
2021/10/01 00:25:26;;;;;;;3.13;0.98;;;13.00;99.90;;;;;;5072260;28;20465;-74
2021/10/01 00:27:52;;;;;;;4.35;1.10;;;13.00;99.90;;;;;;5069930;28;20103;-74
2021/10/01 00:30:18;;;;;;;3.70;1.10;;;12.90;99.90;;;;;;5072581;28;20025;-73
2021/10/01 00:32:43;;;;;;;3.80;1.17;;;12.90;99.90;;;;;;5070937;28;20108;-74
2021/10/01 00:35:09;;;;;;;6.45;1.40;;;12.90;99.90;;;;;;5070981;28;20028;-74
2021/10/01 00:37:34;;;;;;;5.35;1.20;;;13.00;99.90;;;;;;5070445;28;20020;-74
2021/10/01 00:40:00;;;;;;;8.20;1.45;;;12.90;99.90;;;;;;5070949;28;20077;-74
2021/10/01 00:42:26;;;;;;;3.08;1.20;;;13.00;99.90;;;;;;5071299;28;20465;-73
2021/10/01 00:44:54;;;;;;;2.58;1.30;;;12.90;99.90;;;;;;5073436;28;20115;-74
2021/10/01 00:47:19;;;;;;;5.28;1.55;;;12.90;99.90;;;;;;5066985;28;20404;-74
2021/10/01 00:49:45;;;;;;;7.40;1.60;;;12.90;99.90;;;;;;5074008;28;20024;-74
2021/10/01 00:52:11;;;;;;;5.22;1.50;;;12.90;99.90;;;;;;5068937;28;20028;-73
2021/10/01 00:54:37;;;;;;;4.57;1.10;;;12.90;99.90;;;;;;5072942;28;20016;-73
2021/10/01 00:57:03;;;;;;;6.05;1.40;;;12.90;99.90;;;;;;5072077;28;20047;-74
2021/10/01 00:59:29;;;;;;;6.00;1.48;;;12.90;99.90;;;;;;5072957;28;20017;-74
2021/10/01 01:01:55;;;;;;;4.68;1.50;;;13.00;99.90;;;;;;5070559;28;20368;-73
2021/10/01 01:04:21;;;;;;;4.90;1.20;;;12.90;99.90;;;;;;5072384;28;20097;-74
2021/10/01 01:06:53;;;;;;;4.82;1.00;;;13.00;99.90;;;;;;5075427;28;20392;-74
2021/10/01 01:09:33;;;;;;;3.43;0.90;;;12.90;99.90;;;;;;5068639;28;20024;-74
2021/10/01 01:12:19;;;;;;;3.90;1.33;;;12.90;99.90;;;;;;5073003;28;20025;-74
2021/10/01 01:15:16;;;;;;;4.07;1.13;;;13.00;99.90;;;;;;5073345;28;20113;-74
2021/10/01 01:18:02;;;;;;;2.72;1.48;;;12.90;99.90;;;;;;5068153;28;20070;-74
2021/10/01 01:20:53;;;;;;;2.22;1.17;;;13.00;99.90;;;;;;5072413;28;20383;-74
2021/10/01 01:23:31;;;;;;;5.18;1.15;;;13.00;99.90;;;;;;5067576;28;20023;-74
2021/10/01 01:26:06;;;;;;;3.72;1.20;;;13.00;99.90;;;;;;5068331;28;20098;-74
2021/10/01 01:28:51;;;;;;;3.90;1.20;;;12.90;99.90;;;;;;5077162;28;20028;-74
2021/10/01 01:31:31;;;;;;;4.18;1.27;;;12.80;99.90;;;;;;5072392;28;20541;-74
2021/10/01 01:34:00;;;;;;;7.10;1.40;;;12.90;99.90;;;;;;5077558;28;20020;-74
2021/10/01 01:36:29;;;;;;;6.07;1.15;;;12.90;99.90;;;;;;5068750;28;20021;-74
2021/10/01 01:38:56;;;;;;;5.32;1.42;;;12.80;99.90;;;;;;5077209;28;20032;-73
2021/10/01 01:41:24;;;;;;;4.60;1.50;;;12.90;99.90;;;;;;5076396;28;20526;-74
2021/10/01 01:43:52;;;;;;;1.98;0.95;;;12.80;99.90;;;;;;5071165;28;20029;-74
2021/10/01 01:46:19;;;;;;;4.60;1.20;;;12.90;99.90;;;;;;5077584;28;20131;-73
2021/10/01 01:48:45;;;;;;;2.88;1.20;;;12.80;99.90;;;;;;5072679;28;20393;-74
2021/10/01 01:51:12;;;;;;;3.67;1.00;;;12.90;99.90;;;;;;5075764;28;20411;-74
2021/10/01 01:53:38;;;;;;;3.97;3.30;;;13.00;99.90;;;;;;5076971;28;20016;-73
2021/10/01 01:56:06;;;;;;;2.08;1.33;;;13.00;99.90;;;;;;5067809;28;20035;-73
2021/10/01 01:58:34;;;;;;;2.05;1.20;;;12.90;99.90;;;;;;5073060;28;20085;-74
2021/10/01 02:01:01;;;;;;;6.55;1.65;;;12.90;99.90;;;;;;5071733;28;20020;-74
2021/10/01 02:03:29;;;;;;;3.33;1.45;;;13.00;99.90;;;;;;5072677;28;20043;-73
2021/10/01 02:05:57;;;;;;;2.72;1.08;;;12.80;99.90;;;;;;5076061;28;20040;-74
2021/10/01 02:08:23;;;;;;;3.17;1.10;;;12.90;99.90;;;;;;5069928;28;20453;-73
2021/10/01 02:10:50;;;;;;;8.07;1.42;;;12.90;99.90;;;;;;5079537;28;20027;-74
2021/10/01 02:13:17;;;;;;;5.28;0.88;;;12.90;99.90;;;;;;5080021;28;20028;-77
2021/10/01 02:15:44;;;;;;;6.30;1.40;;;12.80;99.90;;;;;;5072432;28;20029;-75
2021/10/01 02:18:10;;;;;;;3.63;0.88;;;12.90;99.90;;;;;;5077574;28;20104;-77
2021/10/01 02:20:38;;;;;;;3.72;0.90;;;12.90;99.90;;;;;;5072896;28;20383;-76
2021/10/01 02:23:04;;;;;;;6.35;1.10;;;12.90;99.90;;;;;;5077713;28;20036;-75
2021/10/01 02:28:32;;;;;;;2.90;1.10;;;12.80;99.90;;;;;;5073242;28;20213;-74
2021/10/01 02:31:01;;;;;;;3.17;0.98;;;12.80;99.90;;;;;;5076407;28;20081;-76
2021/10/01 02:33:40;;;;;;;5.45;1.20;;;12.90;99.90;;;;;;5075577;28;20039;-75
2021/10/01 02:36:07;;;;;;;5.80;1.45;;;12.80;99.90;;;;;;5078723;28;20392;-75
2021/10/01 02:38:32;;;;;;;5.43;1.50;;;12.90;99.90;;;;;;5072856;28;20021;-78
2021/10/01 02:40:59;;;;;;;6.18;0.93;;;12.90;99.90;;;;;;5066344;28;20023;-74
2021/10/01 02:43:24;;;;;;;4.13;1.38;;;12.90;99.90;;;;;;5078811;28;20025;-76
2021/10/01 02:45:50;;;;;;;6.95;1.33;;;12.90;99.90;;;;;;5073925;28;20048;-78
2021/10/01 02:48:16;;;;;;;6.70;1.13;;;13.00;99.90;;;;;;5080045;28;20035;-77
2021/10/01 02:50:43;;;;;;;6.95;1.75;;;12.90;99.90;;;;;;5073096;28;20031;-78
2021/10/01 02:53:44;;;;;;;3.17;1.02;;;12.90;99.90;;;;;;5078259;28;20012;-78
2021/10/01 02:56:14;;;;;;;4.47;1.00;;;12.90;99.90;;;;;;5007949;28;20092;-75
2021/10/01 02:58:44;;;;;;;6.95;1.20;;;12.90;99.90;;;;;;5066269;28;20049;-75
2021/10/01 03:01:11;;;;;;;4.72;1.42;;;12.90;99.90;;;;;;5072681;28;20020;-76
2021/10/01 03:03:42;;;;;;;3.40;1.40;;;12.90;99.90;;;;;;5075799;28;20377;-78
2021/10/01 03:06:08;;;;;;;4.03;1.20;;;12.80;99.90;;;;;;5072310;28;20082;-78
2021/10/01 03:08:34;;;;;;;2.05;1.05;;;12.90;99.90;;;;;;5074926;28;20346;-79
2021/10/01 03:11:01;;;;;;;2.55;1.08;;;12.90;99.90;;;;;;5074039;28;20020;-78
2021/10/01 03:13:27;;;;;;;7.22;1.20;;;13.00;99.90;;;;;;5075741;28;20017;-78
2021/10/01 03:15:59;;;;;;;4.25;1.20;;;12.90;99.90;;;;;;5073258;28;20502;-78
2021/10/01 03:18:27;;;;;;;4.05;0.98;;;12.80;99.90;;;;;;5076533;28;20017;-78
2021/10/01 03:20:54;;;;;;;5.80;1.50;;;12.90;99.90;;;;;;5073669;28;20028;-77
2021/10/01 03:23:22;;;;;;;4.32;0.88;;;13.00;99.90;;;;;;5071779;28;20016;-76
2021/10/01 03:25:49;;;;;;;5.10;0.95;;;13.00;99.90;;;;;;5075011;28;20388;-77
2021/10/01 03:28:16;;;;;;;4.82;1.52;;;13.00;99.90;;;;;;5072834;28;20028;-77
2021/10/01 03:30:44;;;;;;;4.28;0.90;;;13.00;99.90;;;;;;5075136;28;20020;-76
2021/10/01 03:33:11;;;;;;;4.78;1.20;;;13.00;99.90;;;;;;5074483;28;20031;-77
2021/10/01 03:35:39;;;;;;;4.70;1.40;;;13.00;99.90;;;;;;5072841;28;20076;-78
2021/10/01 03:38:05;;;;;;;4.70;1.33;;;13.00;99.90;;;;;;5072672;28;20035;-78
2021/10/01 03:40:32;;;;;;;2.08;0.85;;;13.00;99.90;;;;;;5073048;28;20021;-74
2021/10/01 03:42:59;;;;;;;4.25;1.13;;;13.00;99.90;;;;;;5072499;28;20043;-79
2021/10/01 03:45:25;;;;;;;3.65;1.00;;;13.10;99.90;;;;;;5071369;28;20116;-76
2021/10/01 03:47:52;;;;;;;2.42;1.10;;;13.10;99.90;;;;;;5072116;28;20489;-75
2021/10/01 03:50:17;;;;;;;5.13;1.42;;;13.10;99.90;;;;;;5073456;28;20024;-75
2021/10/01 03:52:44;;;;;;;4.75;1.50;;;13.10;99.90;;;;;;5074748;28;20029;-75
2021/10/01 03:55:12;;;;;;;3.85;1.15;;;13.10;99.90;;;;;;5074035;28;20036;-75
2021/10/01 03:57:38;;;;;;;3.33;1.20;;;13.10;99.90;;;;;;5070129;28;20013;-76
2021/10/01 04:00:07;;;;;;;2.67;1.00;;;13.10;99.90;;;;;;5066364;28;20058;-74
2021/10/01 04:02:33;;;;;;;5.90;1.10;;;13.10;99.90;;;;;;5074339;28;20099;-74
2021/10/01 04:04:58;;;;;;;5.68;1.48;;;13.20;99.90;;;;;;5072287;28;20115;-77
2021/10/01 04:07:24;;;;;;;6.00;1.20;;;13.20;99.90;;;;;;5074184;28;20535;-76
2021/10/01 04:09:49;;;;;;;5.03;1.23;;;13.20;99.90;;;;;;5074088;28;20023;-74
2021/10/01 04:12:15;;;;;;;3.00;1.08;;;13.20;99.90;;;;;;5072003;28;20025;-77
2021/10/01 04:14:41;;;;;;;2.20;0.77;;;13.20;99.90;;;;;;5073385;28;20052;-75
2021/10/01 04:17:07;;;;;;;2.97;1.15;;;13.10;99.90;;;;;;5072218;28;20475;-76
2021/10/01 04:19:32;;;;;;;6.60;1.20;;;13.10;99.90;;;;;;5072311;28;20024;-78
2021/10/01 04:21:58;;;;;;;5.03;1.35;;;13.20;99.90;;;;;;5073281;28;20020;-79
2021/10/01 04:24:24;;;;;;;6.18;1.38;;;13.20;99.90;;;;;;5071433;28;20089;-74
2021/10/01 04:26:49;;;;;;;4.43;1.00;;;13.10;99.90;;;;;;5075378;28;20041;-73
2021/10/01 04:29:15;;;;;;;5.97;0.88;;;13.20;99.90;;;;;;5071646;28;20009;-77
2021/10/01 04:31:41;;;;;;;3.30;1.10;;;13.10;99.90;;;;;;5073666;28;20052;-75
2021/10/01 04:34:07;;;;;;;7.03;0.88;;;13.10;99.90;;;;;;5069939;28;20115;-77
2021/10/01 04:36:35;;;;;;;4.25;1.10;;;13.10;99.90;;;;;;5072324;28;20438;-77
2021/10/01 04:39:01;;;;;;;5.57;1.08;;;13.10;99.90;;;;;;5073494;28;20012;-77
2021/10/01 04:41:28;;;;;;;2.72;0.98;;;13.10;99.90;;;;;;5071972;28;20031;-76
2021/10/01 04:43:55;;;;;;;4.25;0.98;;;13.10;99.90;;;;;;5073520;28;20025;-78
2021/10/01 04:46:20;;;;;;;3.33;1.10;;;13.10;99.90;;;;;;5072365;28;20047;-77
2021/10/01 04:48:46;;;;;;;4.28;1.13;;;13.10;99.90;;;;;;5073218;28;20016;-76
2021/10/01 04:51:12;;;;;;;7.97;1.15;;;13.10;99.90;;;;;;5073327;28;20031;-75
2021/10/01 04:53:38;;;;;;;3.15;1.15;;;13.20;99.90;;;;;;5071684;28;20008;-78
2021/10/01 04:56:04;;;;;;;3.72;1.00;;;13.20;99.90;;;;;;5069632;28;20385;-76
2021/10/01 04:58:29;;;;;;;3.40;1.25;;;13.20;99.90;;;;;;5070130;28;20385;-76
2021/10/01 05:00:55;;;;;;;1.85;0.90;;;13.20;99.90;;;;;;5069383;28;20439;-75
2021/10/01 05:03:21;;;;;;;6.63;1.35;;;13.30;99.90;;;;;;5067338;28;20031;-73
2021/10/01 05:05:46;;;;;;;4.75;1.30;;;13.30;99.90;;;;;;5066763;28;20039;-73
2021/10/01 05:08:12;;;;;;;12.35;1.40;;;13.30;99.90;;;;;;5067334;28;20100;-74
2021/10/01 05:10:37;;;;;;;2.15;1.00;;;13.30;99.90;;;;;;5074936;28;20087;-74
2021/10/01 05:13:03;;;;;;;6.00;1.20;;;13.30;99.90;;;;;;5070807;28;20099;-74
2021/10/01 05:15:29;;;;;;;5.53;1.55;;;13.30;99.90;;;;;;5072718;28;20487;-74
2021/10/01 05:17:57;;;;;;;4.97;1.15;;;13.30;99.90;;;;;;5075169;28;20021;-74
2021/10/01 05:20:23;;;;;;;2.95;1.00;;;13.20;99.90;;;;;;5058485;28;20020;-74
2021/10/01 05:22:49;;;;;;;5.72;1.63;;;13.20;99.90;;;;;;5069823;28;20025;-74
2021/10/01 05:25:15;;;;;;;4.68;1.05;;;13.20;99.90;;;;;;5048981;28;20037;-74
2021/10/01 05:27:40;;;;;;;2.35;0.88;;;13.10;99.90;;;;;;5078399;28;20416;-75
2021/10/01 05:30:07;;;;;;;1.88;0.82;;;13.10;99.90;;;;;;5068081;28;20035;-73
2021/10/01 05:32:33;;;;;;;7.70;1.05;;;13.10;99.90;;;;;;5068035;28;20009;-74
2021/10/01 05:34:58;;;;;;;2.35;1.08;;;13.00;99.90;;;;;;5074662;28;20027;-74
2021/10/01 05:37:24;;;;;;;1.73;0.90;;;13.00;99.90;;;;;;5070256;28;20488;-74
2021/10/01 05:39:50;;;;;;;3.88;1.20;;;13.10;99.90;;;;;;5069241;28;20108;-73
2021/10/01 05:42:16;;;;;;;6.28;1.30;;;13.10;99.90;;;;;;5080546;28;20028;-74
2021/10/01 05:44:42;;;;;;;3.08;1.23;;;13.00;99.90;;;;;;5083617;28;20021;-74
2021/10/01 05:47:08;;;;;;;3.25;1.00;;;13.00;99.90;;;;;;5077789;28;20028;-74
2021/10/01 05:49:43;;;;;;;4.80;1.02;;;13.00;99.90;;;;;;5081351;28;20017;-74
2021/10/01 05:54:45;;;;;;;2.88;1.00;;;13.00;99.90;;;;;;5084947;28;20067;-75
2021/10/01 05:57:12;;;;;;;3.10;0.80;;;13.00;99.90;;;;;;5072452;28;20032;-74
2021/10/01 05:59:39;;;;;;;3.72;0.80;;;13.00;99.90;;;;;;5073671;28;20058;-74
2021/10/01 06:02:09;;;;;;;4.32;1.15;;;13.00;99.90;;;;;;5068463;28;20115;-75
2021/10/01 06:04:34;;;;;;;5.00;1.05;;;12.90;99.90;;;;;;5081763;28;20014;-77
2021/10/01 06:07:00;;;;;;;5.55;1.00;;;13.00;99.90;;;;;;5069764;28;20119;-77
2021/10/01 06:09:26;;;;;;;4.55;1.10;;;13.00;99.90;;;;;;5073441;28;20070;-75
2021/10/01 06:11:51;;;;;;;4.78;1.10;;;13.00;99.90;;;;;;5080646;28;20021;-78
2021/10/01 06:14:22;;;;;;;2.35;1.08;;;13.00;99.90;;;;;;5073338;28;20072;-76
2021/10/01 06:16:49;;;;;;;13.55;2.25;;;13.00;99.90;;;;;;5070431;28;20024;-77
2021/10/01 06:19:14;;;;;;;5.65;1.55;;;13.00;99.90;;;;;;5072647;28;20033;-76
2021/10/01 06:21:40;;;;;;;10.48;1.55;;;13.10;99.90;;;;;;5062611;28;20041;-76
2021/10/01 06:24:06;;;;;;;2.90;1.15;;;13.00;99.90;;;;;;5068320;28;20021;-78
2021/10/01 06:26:32;;;;;;;3.40;1.30;;;13.10;99.90;;;;;;5060939;28;20491;-74
2021/10/01 06:28:57;;;;;;;4.68;1.48;;;13.20;99.90;;;;;;5067912;28;20481;-78
2021/10/01 06:31:23;;;;;;;5.43;1.40;;;13.20;99.90;;;;;;5031222;28;20106;-75
2021/10/01 06:33:49;;;;;;;7.85;1.85;;;13.30;99.90;;;;;;5045489;28;20032;-80
2021/10/01 06:36:19;;;;;;;7.88;1.10;;;13.30;99.90;;;;;;5048789;28;20039;-78
2021/10/01 06:38:45;;;;;;;7.20;1.60;;;13.30;99.90;;;;;;5055937;28;20019;-79
2021/10/01 06:41:11;;;;;;;5.95;1.20;;;13.40;99.90;;;;;;5072326;28;20391;-79
2021/10/01 06:43:38;;;;;;;4.05;0.90;;;13.40;99.90;;;;;;5074101;28;20036;-80
2021/10/01 06:46:08;;;;;;;3.38;1.05;;;13.40;99.90;;;;;;5073097;28;20110;-79
2021/10/01 06:48:55;;;;;;;5.68;1.98;;;13.40;99.90;;;;;;5074669;28;20013;-79
2021/10/01 07:24:11;;;;;;;4.80;1.00;;;13.90;99.90;;;;;;5078479;28;20515;-81
2021/10/01 08:20:59;;;;;;;5.63;1.70;;;14.70;99.90;;;;;;5069418;28;20040;-77
2021/10/01 08:23:24;;;;;;;4.05;1.35;;;14.60;99.90;;;;;;5071225;28;20028;-76
2021/10/01 08:25:50;;;;;;;4.00;1.40;;;14.70;99.90;;;;;;5076509;28;20036;-77
2021/10/01 08:28:15;;;;;;;6.38;1.83;;;14.70;99.90;;;;;;5075301;28;20036;-77
2021/10/01 08:30:41;;;;;;;5.25;1.75;;;14.70;99.90;;;;;;5069895;28;20032;-77
2021/10/01 08:33:07;;;;;;;5.40;1.13;;;14.80;99.90;;;;;;5066541;28;20537;-76
2021/10/01 08:35:33;;;;;;;6.53;1.80;;;14.80;99.90;;;;;;5064087;28;21204;-76
2021/10/01 08:37:59;;;;;;;7.57;1.73;;;14.90;99.90;;;;;;5065332;28;20024;-76
2021/10/01 08:40:25;;;;;;;3.22;1.50;;;14.90;99.90;;;;;;5059398;28;20036;-75
2021/10/01 08:42:52;;;;;;;13.05;1.85;;;14.90;99.90;;;;;;5080773;28;20021;-76
2021/10/01 08:45:20;;;;;;;5.13;1.40;;;15.10;99.90;;;;;;5070298;28;20461;-76
2021/10/01 08:47:46;;;;;;;5.28;1.30;;;15.10;99.90;;;;;;5071690;28;20032;-74
2021/10/01 08:50:16;;;;;;;2.88;1.15;;;15.10;99.90;;;;;;5069740;28;20067;-74
2021/10/01 08:52:42;;;;;;;4.40;1.30;;;15.10;99.90;;;;;;5071842;28;20159;-74
2021/10/01 08:55:09;;;;;;;5.53;1.45;;;15.20;99.90;;;;;;5070220;28;20154;-74
2021/10/01 08:57:35;;;;;;;8.30;1.42;;;15.30;99.90;;;;;;5076888;28;20077;-74
2021/10/01 09:00:05;;;;;;;3.50;1.30;;;15.30;99.90;;;;;;5072783;28;20051;-73
2021/10/01 09:02:31;;;;;;;3.72;1.30;;;15.40;99.90;;;;;;5070758;28;20047;-74
2021/10/01 09:04:57;;;;;;;5.25;1.30;;;15.50;99.90;;;;;;5071129;28;20025;-74
2021/10/01 09:07:24;;;;;;;6.07;1.08;;;15.60;99.90;;;;;;5075586;28;20043;-77
2021/10/01 09:09:54;;;;;;;8.18;1.40;;;15.60;99.90;;;;;;5075561;28;20063;-76
2021/10/01 09:12:22;;;;;;;4.65;1.30;;;15.60;99.90;;;;;;5067030;28;20025;-77
2021/10/01 09:14:58;;;;;;;5.93;1.85;;;15.70;99.90;;;;;;5071447;28;20112;-77
2021/10/01 09:17:31;;;;;;;3.72;1.00;;;15.90;99.90;;;;;;5064188;28;20501;-77
2021/10/01 09:19:58;;;;;;;5.22;1.45;;;15.90;99.90;;;;;;5074180;28;20083;-76
2021/10/01 09:22:31;;;;;;;3.80;1.23;;;15.90;99.90;;;;;;5076769;28;20425;-77
2021/10/01 09:25:26;;;;;;;8.45;1.40;;;16.00;99.90;;;;;;5087141;28;20028;-77
2021/10/01 09:28:00;;;;;;;6.43;1.50;;;16.00;99.90;;;;;;5057883;28;20049;-76
2021/10/01 09:30:26;;;;;;;5.68;1.13;;;16.10;99.90;;;;;;5070554;28;20024;-78
2021/10/01 09:33:08;;;;;;;3.70;1.00;;;16.20;99.90;;;;;;5080639;28;20028;-77
2021/10/01 09:35:34;;;;;;;8.43;1.27;;;16.20;99.90;;;;;;5074700;28;20024;-77
2021/10/01 09:38:11;;;;;;;4.20;1.08;;;16.30;99.90;;;;;;5077885;28;20025;-78
2021/10/01 09:40:38;;;;;;;8.02;1.33;;;16.30;99.90;;;;;;5070524;28;20024;-76
2021/10/01 09:43:05;;;;;;;5.00;1.75;;;16.40;99.90;;;;;;5075194;28;20115;-80
2021/10/01 09:45:31;;;;;;;5.35;1.05;;;16.70;99.90;;;;;;5074824;28;20044;-83
2021/10/01 09:48:05;;;;;;;6.97;1.20;;;16.90;99.90;;;;;;5074849;28;20025;-82
2021/10/01 09:50:31;;;;;;;3.00;1.10;;;16.90;99.90;;;;;;5080990;28;20527;-81
2021/10/01 09:53:03;;;;;;;6.72;1.30;;;17.10;99.90;;;;;;5079098;28;20062;-81
2021/10/01 09:55:38;;;;;;;6.75;0.80;;;17.10;99.90;;;;;;5069794;28;20047;-82
2021/10/01 09:58:10;;;;;;;4.05;0.98;;;17.20;99.90;;;;;;5069414;28;20456;-78
2021/10/01 10:00:39;;;;;;;4.82;1.83;;;17.40;99.90;;;;;;5072509;28;20032;-75
2021/10/01 10:03:06;;;;;;;4.57;1.25;;;17.60;99.90;;;;;;5072510;28;20028;-76
2021/10/01 10:05:59;;;;;;;2.25;0.88;;;17.60;99.90;;;;;;5074723;28;20032;-76
2021/10/01 10:08:31;;;;;;;5.35;1.00;;;17.80;99.90;;;;;;5076247;28;20020;-76
2021/10/01 10:10:58;;;;;;;3.53;1.13;;;18.00;99.90;;;;;;5080370;28;20108;-76
2021/10/01 10:13:46;;;;;;;5.70;1.05;;;18.20;99.90;;;;;;5070494;28;20046;-76
2021/10/01 10:16:17;;;;;;;4.07;1.17;;;18.30;99.90;;;;;;5069028;28;20016;-77
2021/10/01 10:18:45;;;;;;;4.78;1.20;;;18.40;99.90;;;;;;5069827;28;20024;-78
2021/10/01 10:21:11;;;;;;;7.55;1.02;;;18.50;99.90;;;;;;5063632;28;20027;-78
2021/10/01 10:23:37;;;;;;;7.60;1.23;;;18.50;99.90;;;;;;5076650;28;20404;-78
2021/10/01 10:26:04;;;;;;;2.97;1.00;;;18.50;99.90;;;;;;5074604;28;20050;-78
2021/10/01 10:28:29;;;;;;;4.90;0.90;;;18.60;99.90;;;;;;5072891;28;20017;-79
2021/10/01 10:30:56;;;;;;;4.05;0.90;;;18.50;99.90;;;;;;5070794;28;20033;-77
2021/10/01 10:33:42;;;;;;;3.95;1.05;;;18.60;99.90;;;;;;5068009;28;20120;-78
2021/10/01 10:36:32;;;;;;;5.47;0.88;;;18.70;99.90;;;;;;5065330;28;20378;-79
2021/10/01 10:39:14;;;;;;;4.10;1.08;;;18.90;99.90;;;;;;5067092;28;20473;-79
2021/10/01 10:42:00;;;;;;;3.05;1.10;;;19.10;99.90;;;;;;5072149;28;20024;-77
2021/10/01 10:44:53;;;;;;;3.92;1.67;;;19.20;99.90;;;;;;5068338;28;20040;-79
2021/10/01 10:47:38;;;;;;;;;;;19.20;99.90;;;;;;5077546;28;20036;-79
2021/10/01 10:50:24;;;;;;;4.82;0.98;;;19.20;99.90;;;;;;5076029;28;19908;-80
2021/10/01 10:53:06;;;;;;;6.65;1.60;;;19.30;99.90;;;;;;5076574;28;20036;-80
2021/10/01 10:55:34;;;;;;;7.85;1.30;;;19.30;99.90;;;;;;5075654;28;20032;-79
2021/10/01 10:58:26;;;;;;;7.47;1.10;;;19.20;99.90;;;;;;5076275;28;20024;-80
2021/10/01 11:00:59;;;;;;;6.50;1.10;;;19.30;99.90;;;;;;5074838;28;20564;-79
2021/10/01 11:03:33;;;;;;;9.75;1.42;;;19.10;99.90;;;;;;5070471;28;20032;-80
2021/10/01 11:06:13;;;;;;;4.63;1.20;;;19.30;99.90;;;;;;5078108;28;20036;-79
2021/10/01 11:08:57;;;;;;;4.50;1.10;;;19.30;99.90;;;;;;5068667;28;20032;-79
2021/10/01 11:11:29;;;;;;;6.47;1.10;;;19.20;99.90;;;;;;5075245;28;20294;-79
2021/10/01 11:14:15;;;;;;;6.68;1.05;;;19.00;99.90;;;;;;5073400;28;20484;-80
2021/10/01 11:16:53;;;;;;;5.82;1.33;;;19.10;99.90;;;;;;5073280;28;20051;-79
2021/10/01 11:19:43;;;;;;;3.00;1.08;;;19.30;99.90;;;;;;5074082;28;20381;-80
2021/10/01 11:22:29;;;;;;;4.80;1.38;;;19.50;99.90;;;;;;5058998;28;20515;-79
2021/10/01 11:25:05;;;;;;;3.20;1.10;;;19.40;99.90;;;;;;5070566;28;20508;-81
2021/10/01 11:27:33;;;;;;;3.90;0.85;;;19.20;99.90;;;;;;5078008;28;20045;-82
2021/10/01 11:29:58;;;;;;;3.55;1.17;;;19.20;99.90;;;;;;5081753;28;20028;-79
2021/10/01 11:32:27;;;;;;;3.92;1.10;;;19.10;99.90;;;;;;5074619;28;20488;-80
2021/10/01 11:35:02;;;;;;;3.83;1.15;;;19.20;99.90;;;;;;5071005;28;20074;-80
2021/10/01 11:37:38;;;;;;;3.10;1.15;;;19.30;99.90;;;;;;5073751;28;20473;-80
2021/10/01 11:40:18;;;;;;;8.23;1.23;;;19.30;99.90;;;;;;5073849;28;20017;-80
2021/10/01 11:42:47;;;;;;;5.68;1.67;;;19.40;99.90;;;;;;5087949;28;20097;-79
2021/10/01 11:45:22;;;;;;;3.47;1.20;;;19.40;99.90;;;;;;5077180;28;20024;-80
2021/10/01 11:48:07;;;;;;;2.38;0.98;;;19.20;99.90;;;;;;5075691;28;20036;-81
2021/10/01 11:50:39;;;;;;;5.60;1.35;;;19.40;99.90;;;;;;5071096;28;20016;-80
2021/10/01 11:53:20;;;;;;;9.20;1.20;;;19.40;99.90;;;;;;5075604;28;20082;-81
2021/10/01 11:55:59;;;;;;;4.60;0.88;;;19.50;99.90;;;;;;5070291;28;20020;-80
2021/10/01 11:58:26;;;;;;;5.35;0.90;;;19.40;99.90;;;;;;5073141;28;20147;-81
2021/10/01 12:00:55;;;;;;;4.47;1.02;;;19.40;99.90;;;;;;5077912;28;20512;-81
2021/10/01 12:03:22;;;;;;;2.38;0.90;;;19.30;99.90;;;;;;5079010;28;20032;-83
2021/10/01 12:05:49;;;;;;;4.43;1.27;;;19.30;99.90;;;;;;5083953;28;20041;-81
2021/10/01 12:08:19;;;;;;;5.30;0.90;;;19.30;99.90;;;;;;5076552;28;20016;-79
2021/10/01 12:10:48;;;;;;;4.35;1.20;;;19.40;99.90;;;;;;5079612;28;20032;-80
2021/10/01 12:13:25;;;;;;;2.80;1.25;;;19.50;99.90;;;;;;5070634;28;20017;-82
2021/10/01 12:15:55;;;;;;;5.10;0.98;;;19.60;99.90;;;;;;5068488;28;20059;-82
2021/10/01 12:18:35;;;;;;;5.18;0.90;;;19.70;99.90;;;;;;5074364;28;20020;-80
2021/10/01 12:21:11;;;;;;;8.80;1.30;;;19.50;99.90;;;;;;5082016;28;20122;-80
2021/10/01 12:23:41;;;;;;;3.20;1.10;;;19.50;99.90;;;;;;5081833;28;20031;-81
2021/10/01 12:26:31;;;;;;;8.73;1.70;;;19.50;99.90;;;;;;5079010;28;20036;-80
2021/10/01 12:28:59;;;;;;;4.07;0.90;;;19.40;99.90;;;;;;5072948;28;20369;-80
2021/10/01 12:31:33;;;;;;;4.35;1.23;;;19.30;99.90;;;;;;5068330;28;20501;-79
2021/10/01 12:34:02;;;;;;;7.85;1.10;;;19.30;99.90;;;;;;5071663;28;20528;-84
2021/10/01 12:36:30;;;;;;;5.90;1.30;;;19.20;99.90;;;;;;5073756;28;20029;-80
2021/10/01 12:38:58;;;;;;;5.32;1.20;;;19.30;99.90;;;;;;5070205;28;20031;-78
2021/10/01 12:41:27;;;;;;;2.88;1.13;;;19.40;99.90;;;;;;5076006;28;20106;-78
2021/10/01 12:43:57;;;;;;;1.88;1.05;;;19.30;99.90;;;;;;5074801;28;20027;-78
2021/10/01 12:46:40;;;;;;;3.60;0.88;;;19.20;99.90;;;;;;5074305;28;20043;-78
2021/10/01 12:49:29;;;;;;;;;;;19.30;99.90;;;;;;5074386;28;20489;-78
2021/10/01 12:52:07;;;;;;;7.75;1.05;;;19.20;99.90;;;;;;5064131;28;19948;-79
2021/10/01 12:54:44;;;;;;;7.00;1.40;;;19.20;99.90;;;;;;5074692;28;20020;-79
2021/10/01 12:57:13;;;;;;;3.67;1.45;;;19.30;99.90;;;;;;5073976;28;21274;-78
2021/10/01 12:59:49;;;;;;;6.50;0.90;;;19.30;99.90;;;;;;5072176;28;20004;-78
2021/10/01 13:02:20;;;;;;;5.05;1.20;;;19.30;99.90;;;;;;5063252;28;20476;-80
2021/10/01 13:04:59;;;;;;;3.75;1.08;;;19.30;99.90;;;;;;5064995;28;20029;-80
2021/10/01 13:07:34;;;;;;;4.38;1.08;;;19.30;99.90;;;;;;5063922;28;20032;-81
2021/10/01 13:10:30;;;;;;;2.97;1.42;;;19.20;99.90;;;;;;5066884;28;20392;-79
2021/10/01 13:13:13;;;;;;;3.80;1.10;;;19.20;99.90;;;;;;5066382;28;20101;-81
2021/10/01 13:15:46;;;;;;;3.03;1.17;;;19.30;99.90;;;;;;5068366;28;20107;-79
2021/10/01 13:18:19;;;;;;;;;;;19.30;99.90;;;;;;5069291;28;20103;-80
2021/10/01 13:21:07;;;;;;;4.40;1.45;;;19.30;99.90;;;;;;5065385;28;19905;-79
2021/10/01 13:23:55;;;;;;;5.18;1.02;;;19.40;99.90;;;;;;5066419;28;20013;-79
2021/10/01 13:26:24;;;;;;;4.60;1.08;;;19.50;99.90;;;;;;5069402;28;20469;-80
2021/10/01 13:28:59;;;;;;;2.75;0.93;;;19.40;99.90;;;;;;5065956;28;20033;-80
2021/10/01 13:31:28;;;;;;;6.68;1.00;;;19.20;99.90;;;;;;5061842;28;20040;-80
2021/10/01 13:33:56;;;;;;;3.70;1.15;;;19.20;99.90;;;;;;5069354;28;20028;-80
2021/10/01 13:36:24;;;;;;;6.20;1.55;;;19.30;99.90;;;;;;5068248;28;20487;-81
2021/10/01 13:38:51;;;;;;;2.70;0.88;;;19.20;99.90;;;;;;5069964;28;20078;-80
2021/10/01 13:41:20;;;;;;;5.45;1.38;;;19.30;99.90;;;;;;5062991;28;20129;-78
2021/10/01 13:43:48;;;;;;;4.55;1.30;;;19.30;99.90;;;;;;5074773;28;20074;-81
2021/10/01 13:46:16;;;;;;;4.28;1.30;;;19.30;99.90;;;;;;5072815;28;20047;-79
2021/10/01 13:48:42;;;;;;;4.55;1.58;;;19.20;99.90;;;;;;5077329;28;20024;-80
2021/10/01 13:51:08;;;;;;;3.67;1.23;;;19.20;99.90;;;;;;5080676;28;20029;-80
2021/10/01 13:53:34;;;;;;;5.22;1.10;;;19.20;99.90;;;;;;5073666;28;20050;-80
2021/10/01 13:55:59;;;;;;;6.95;1.38;;;19.30;99.90;;;;;;5067645;28;20042;-80
2021/10/01 13:58:25;;;;;;;3.65;1.42;;;19.30;99.90;;;;;;5075301;28;20032;-82
2021/10/01 14:00:53;;;;;;;5.88;1.05;;;19.30;99.90;;;;;;5071464;28;20526;-81
2021/10/01 14:03:21;;;;;;;4.50;1.45;;;19.20;99.90;;;;;;5063287;28;20047;-80
2021/10/01 14:05:51;;;;;;;7.13;0.90;;;19.30;99.90;;;;;;5068084;28;20032;-79
2021/10/01 14:08:18;;;;;;;7.93;1.27;;;19.10;99.90;;;;;;5076988;28;20028;-80
2021/10/01 14:10:44;;;;;;;3.00;1.02;;;19.10;99.90;;;;;;5077278;28;20527;-81
2021/10/01 14:13:13;;;;;;;2.50;1.10;;;19.10;99.90;;;;;;5079615;28;20534;-81
2021/10/01 14:15:41;;;;;;;4.20;1.13;;;19.10;99.90;;;;;;5073687;28;20039;-79
2021/10/01 14:18:06;;;;;;;4.38;1.20;;;19.00;99.90;;;;;;5080569;28;20044;-83
2021/10/01 14:20:34;;;;;;;1.15;0.70;;;19.00;99.90;;;;;;5071878;28;20052;-80
2021/10/01 14:23:00;;;;;;;4.10;1.17;;;19.00;99.90;;;;;;5076265;28;20473;-81
2021/10/01 14:25:27;;;;;;;4.32;1.40;;;18.90;99.90;;;;;;5074095;28;20059;-81
2021/10/01 14:27:56;;;;;;;5.90;1.13;;;18.80;99.90;;;;;;5075891;28;20510;-80
2021/10/01 14:30:25;;;;;;;2.58;1.10;;;18.70;99.90;;;;;;5079817;28;20120;-81
2021/10/01 14:32:52;;;;;;;3.20;1.35;;;18.80;99.90;;;;;;5077512;28;20032;-81
2021/10/01 14:35:19;;;;;;;3.10;1.52;;;18.80;99.90;;;;;;5074116;28;20233;-81